»·PEaware :: WAT169 KLAS-KONT

WAT169 :: KLAS-KONT

FLIGHT INFORMATION

Flight Status: Arrived
Operator: Unknown
More flights by this operator :: More flights under this callsign
Pilot: Marty P. (27464)
Aircraft: BOEING 737-800
(B738)
More flights by this aircraft type
Origin: KLAS McCarran Intl
United States
Destination: KONT Ontario Intl
United States
More flights between these airports :: More routes between these airports
Route: BOACH8 WHIGG FEYLA JCKIE2
File this flight plan on PilotEdge
Remarks:
Altitude:
(Current/Filed)
28,000ft
Speed:
(Current/Filed)
470kts
Departed: 20-May-20 09:44 PM
Arrived: 20-May-20 10:20 PM
Distance/Time
Traveled:
171nm/0:35
Distance/Time
To Go:
Arrived

Flight Plot

Page will automatically refresh every two minutes.


Map Options




Map Legend


Flown Route
Filed Route
Departure Airport
Arrival Airport
Navaid (VOR, NDB)
Fix

Horizontal Profiles

Position Reports

Time Latitude Longitude Heading Altitude Ground
Speed
20-May-20 20:59 36.080313 -115.147275 61 2191ft 0kts
20-May-20 21:00 36.080313 -115.147275 61 2191ft 0kts
20-May-20 21:01 36.080313 -115.147275 61 2191ft 0kts
20-May-20 21:02 36.080313 -115.147275 61 2191ft 0kts
20-May-20 21:03 36.080313 -115.147275 61 2191ft 0kts
20-May-20 21:04 36.080313 -115.147275 61 2191ft 0kts
20-May-20 21:05 36.080313 -115.147275 61 2191ft 0kts
20-May-20 21:06 36.080313 -115.147275 61 2191ft 0kts
20-May-20 21:07 36.080313 -115.147275 61 2191ft 0kts
20-May-20 21:08 36.080313 -115.147275 61 2191ft 0kts
20-May-20 21:09 36.080313 -115.147275 61 2191ft 0kts
20-May-20 21:10 36.080313 -115.147275 61 2191ft 0kts
20-May-20 21:11 36.080313 -115.147276 61 2191ft 0kts
20-May-20 21:12 36.080313 -115.147276 61 2191ft 0kts
20-May-20 21:13 36.080313 -115.147276 61 2191ft 0kts
20-May-20 21:14 36.080313 -115.147276 61 2191ft 0kts
20-May-20 21:15 36.080313 -115.147276 61 2191ft 0kts
20-May-20 21:16 36.080313 -115.147276 61 2191ft 0kts
20-May-20 21:17 36.080313 -115.147276 61 2191ft 0kts
20-May-20 21:18 36.080313 -115.147276 61 2191ft 0kts
20-May-20 21:19 36.080313 -115.147276 61 2191ft 0kts
20-May-20 21:20 36.080313 -115.147276 61 2191ft 0kts
20-May-20 21:21 36.080313 -115.147276 61 2191ft 0kts
20-May-20 21:22 36.080313 -115.147276 61 2191ft 0kts
20-May-20 21:23 36.080247 -115.147498 83 2191ft 2kts
20-May-20 21:24 36.080461 -115.148155 144 2191ft 2kts
20-May-20 21:25 36.080646 -115.148271 159 2191ft 0kts
20-May-20 21:26 36.080646 -115.148271 159 2191ft 0kts
20-May-20 21:27 36.080646 -115.148271 159 2191ft 0kts
20-May-20 21:28 36.080646 -115.148271 159 2191ft 0kts
20-May-20 21:29 36.079838 -115.147817 155 2191ft 7kts
20-May-20 21:30 36.078450 -115.146165 95 2191ft 7kts
20-May-20 21:31 36.078310 -115.144116 94 2191ft 5kts
20-May-20 21:32 36.078265 -115.142110 90 2191ft 6kts
20-May-20 21:33 36.078270 -115.138846 89 2191ft 10kts
20-May-20 21:34 36.078269 -115.136238 90 2191ft 7kts
20-May-20 21:35 36.078268 -115.133624 90 2191ft 8kts
20-May-20 21:36 36.078280 -115.128719 90 2191ft 20kts
20-May-20 21:37 36.078273 -115.124492 89 2191ft 5kts
20-May-20 21:38 36.077459 -115.121500 139 2191ft 0kts
20-May-20 21:39 36.077459 -115.121500 139 2191ft 0kts
20-May-20 21:40 36.077459 -115.121500 139 2191ft 0kts
20-May-20 21:41 36.077459 -115.121500 139 2191ft 0kts
20-May-20 21:42 36.077459 -115.121500 139 2191ft 0kts
20-May-20 21:43 36.076447 -115.127082 270 2191ft 95kts
20-May-20 21:44 36.076536 -115.184777 272 3974ft 203kts
20-May-20 21:45 36.053709 -115.260731 217 6590ft 268kts
20-May-20 21:46 35.982891 -115.296237 199 7006ft 273kts
20-May-20 21:47 35.904865 -115.309558 186 10530ft 288kts
20-May-20 21:48 35.818193 -115.310885 175 12279ft 355kts
20-May-20 21:49 35.717473 -115.301623 188 15151ft 370kts
20-May-20 21:50 35.629963 -115.360469 228 17908ft 369kts
20-May-20 21:51 35.559130 -115.455076 230 19295ft 387kts
20-May-20 21:52 35.484748 -115.555140 231 21159ft 409kts
20-May-20 21:53 35.412059 -115.652938 231 24476ft 381kts
20-May-20 21:54 35.340111 -115.749834 232 26384ft 390kts
20-May-20 21:55 35.266072 -115.849255 232 27930ft 400kts
20-May-20 21:56 35.189629 -115.951216 231 28010ft 418kts
20-May-20 21:57 35.109630 -116.057127 232 28008ft 428kts
20-May-20 21:58 35.029391 -116.163279 232 28009ft 425kts
20-May-20 21:59 34.944532 -116.264375 228 28017ft 428kts
20-May-20 22:00 34.860870 -116.359098 230 27979ft 396kts
20-May-20 22:01 34.788278 -116.453778 237 24506ft 379kts
20-May-20 22:02 34.727302 -116.554058 238 20618ft 361kts
20-May-20 22:04 34.670092 -116.649923 237 17015ft 352kts
20-May-20 22:05 34.614394 -116.743235 236 14946ft 341kts
20-May-20 22:06 34.566784 -116.841548 243 12690ft 337kts
20-May-20 22:07 34.517943 -116.929360 230 12112ft 292kts
20-May-20 22:08 34.465144 -117.003221 229 10754ft 288kts
20-May-20 22:09 34.398868 -117.056268 208 9408ft 287kts
20-May-20 22:10 34.329412 -117.099279 207 8311ft 275kts
20-May-20 22:11 34.265992 -117.149042 221 8004ft 275kts
20-May-20 22:12 34.208375 -117.209348 221 8000ft 274kts
20-May-20 22:13 34.151658 -117.268042 221 7904ft 246kts
20-May-20 22:14 34.103551 -117.317362 221 6797ft 215kts
20-May-20 22:15 34.058414 -117.364633 239 4590ft 208kts
20-May-20 22:16 34.054841 -117.429178 270 3417ft 160kts
20-May-20 22:17 34.054944 -117.479505 269 2674ft 146kts
20-May-20 22:18 34.054964 -117.528128 269 1871ft 146kts
20-May-20 22:19 34.054957 -117.576187 269 1096ft 143kts
20-May-20 22:19 34.055296 -117.599270 313 953ft 20kts
20-May-20 22:21 34.057025 -117.599835 359 953ft 8kts
20-May-20 22:22 34.057831 -117.599840 0 953ft 4kts
20-May-20 22:22 34.059674 -117.599615 16 953ft 6kts
20-May-20 22:24 34.059998 -117.599491 18 953ft 0kts
20-May-20 22:24 34.059998 -117.599491 18 953ft 0kts
20-May-20 22:25 34.059998 -117.599491 18 953ft 0kts
20-May-20 22:26 34.059998 -117.599491 18 953ft 0kts
20-May-20 22:27 34.059998 -117.599491 18 953ft 0kts
20-May-20 22:28 34.059998 -117.599491 18 953ft 0kts

Navigation Log

Ident Type
Flight plan parsing failed, navigation log unavailable